createdAt,value
2023-05-18T00:00:59.303Z,17.92
2023-05-18T00:03:26.282Z,20.08
2023-05-18T00:05:53.174Z,22.27
2023-05-18T00:08:19.808Z,23.95
2023-05-18T00:10:46.837Z,23.55
2023-05-18T00:13:13.604Z,21.40
2023-05-18T00:15:40.624Z,23.20
2023-05-18T00:18:07.560Z,18.38
2023-05-18T00:20:34.812Z,22.17
2023-05-18T00:23:02.441Z,28.17
2023-05-18T00:25:29.403Z,20.60
2023-05-18T00:27:56.284Z,23.63
2023-05-18T00:30:25.624Z,26.83
2023-05-18T00:32:52.308Z,27.73
2023-05-18T00:35:19.181Z,25.30
2023-05-18T00:37:45.991Z,29.77
2023-05-18T00:40:12.835Z,25.08
2023-05-18T00:42:39.529Z,24.80
2023-05-18T00:45:06.837Z,25.90
2023-05-18T00:47:33.513Z,21.75
2023-05-18T00:50:00.208Z,23.33
2023-05-18T00:52:27.400Z,28.10
2023-05-18T00:54:54.031Z,23.73
2023-05-18T00:57:20.943Z,24.30
2023-05-18T00:59:47.649Z,27.38
2023-05-18T01:02:14.986Z,28.25
2023-05-18T01:04:44.076Z,33.50
2023-05-18T01:07:11.429Z,38.97
2023-05-18T01:09:38.388Z,34.75
2023-05-18T01:12:41.932Z,34.50
2023-05-18T01:15:16.135Z,31.95
2023-05-18T01:17:54.862Z,35.35
2023-05-18T01:20:59.564Z,34.80
2023-05-18T01:23:48.708Z,35.47
2023-05-18T01:26:30.143Z,34.72
2023-05-18T01:29:00.831Z,32.47
2023-05-18T01:31:27.846Z,30.40
2023-05-18T01:33:54.608Z,38.63
2023-05-18T01:36:21.262Z,33.10
2023-05-18T01:38:47.887Z,32.88
2023-05-18T01:41:21.320Z,31.58
2023-05-18T01:44:26.289Z,31.05
2023-05-18T01:47:11.183Z,24.52
2023-05-18T01:49:42.211Z,28.35
2023-05-18T01:52:19.568Z,22.88
2023-05-18T01:54:47.968Z,21.13
2023-05-18T01:57:14.691Z,24.00
2023-05-18T01:59:41.636Z,21.30
2023-05-18T02:02:08.998Z,30.30
2023-05-18T02:04:35.788Z,23.58
2023-05-18T02:07:02.687Z,19.58
2023-05-18T02:09:29.500Z,20.73
2023-05-18T02:11:56.176Z,23.27
2023-05-18T02:14:22.844Z,23.05
2023-05-18T02:16:53.049Z,20.83
2023-05-18T02:19:20.824Z,23.27
2023-05-18T02:21:47.466Z,27.13
2023-05-18T02:24:14.169Z,22.88
2023-05-18T02:26:41.703Z,25.83
2023-05-18T02:29:11.748Z,27.23
2023-05-18T02:31:38.758Z,25.40
2023-05-18T02:34:05.485Z,22.20
2023-05-18T02:36:39.895Z,31.05
2023-05-18T02:39:07.160Z,26.80
2023-05-18T02:41:34.135Z,30.05
2023-05-18T02:44:02.309Z,25.65
2023-05-18T02:46:29.283Z,27.88
2023-05-18T02:48:56.235Z,31.23
2023-05-18T02:51:23.031Z,27.98
2023-05-18T02:53:50.338Z,29.50
2023-05-18T02:56:17.865Z,26.98
2023-05-18T02:58:45.034Z,31.92
2023-05-18T03:01:14.893Z,29.20
2023-05-18T03:03:42.622Z,32.92
2023-05-18T03:06:09.506Z,37.75
2023-05-18T03:08:41.151Z,24.60
2023-05-18T03:11:07.942Z,29.50
2023-05-18T03:13:34.693Z,32.53
2023-05-18T03:16:01.447Z,27.98
2023-05-18T03:18:28.273Z,30.17
2023-05-18T03:20:54.964Z,38.03
2023-05-18T03:23:21.692Z,27.02
2023-05-18T03:25:54.524Z,30.27
2023-05-18T03:28:21.528Z,35.28
2023-05-18T03:30:48.278Z,30.45
2023-05-18T03:33:14.986Z,24.75
2023-05-18T03:35:41.771Z,34.17
2023-05-18T03:38:08.405Z,32.13
2023-05-18T03:40:35.110Z,38.25
2023-05-18T03:43:01.894Z,36.63
2023-05-18T03:45:29.040Z,34.47
2023-05-18T03:47:56.052Z,29.48
2023-05-18T03:50:23.033Z,40.50
2023-05-18T03:52:49.690Z,32.35
2023-05-18T03:55:17.341Z,32.50
2023-05-18T03:57:44.154Z,30.48
2023-05-18T04:00:12.218Z,41.63
2023-05-18T04:02:39.694Z,35.88
2023-05-18T04:05:06.974Z,36.15
2023-05-18T04:07:33.639Z,31.20
2023-05-18T04:10:00.364Z,35.92
2023-05-18T04:12:27.000Z,32.60
2023-05-18T04:14:54.227Z,32.83
2023-05-18T04:17:22.408Z,37.92
2023-05-18T04:19:50.107Z,34.03
2023-05-18T04:22:16.953Z,36.78
2023-05-18T04:24:45.736Z,31.30
2023-05-18T04:27:12.642Z,32.03
2023-05-18T04:29:40.207Z,35.45
2023-05-18T04:32:08.093Z,40.55
2023-05-18T04:34:38.141Z,32.92
2023-05-18T04:37:08.102Z,29.48
2023-05-18T04:39:35.293Z,34.30
2023-05-18T04:42:02.165Z,31.70
2023-05-18T04:44:29.217Z,31.98
2023-05-18T04:46:56.352Z,33.30
2023-05-18T04:49:23.225Z,39.65
2023-05-18T04:51:50.462Z,33.20
2023-05-18T04:54:17.171Z,35.60
2023-05-18T04:56:43.832Z,33.08
2023-05-18T04:59:10.859Z,31.98
2023-05-18T05:01:37.621Z,36.05
2023-05-18T05:04:06.376Z,28.65
2023-05-18T05:06:33.206Z,27.80
2023-05-18T05:08:59.879Z,27.10
2023-05-18T05:11:26.527Z,28.45
2023-05-18T05:13:53.152Z,29.77
2023-05-18T05:16:19.857Z,25.45
2023-05-18T05:18:47.493Z,31.98
2023-05-18T05:21:14.291Z,29.70
2023-05-18T05:23:41.561Z,24.33
2023-05-18T05:26:08.229Z,27.92
2023-05-18T05:28:34.874Z,21.17
2023-05-18T05:31:01.654Z,23.63
2023-05-18T05:33:28.374Z,23.50
2023-05-18T05:35:55.015Z,24.13
2023-05-18T05:38:21.688Z,19.98
2023-05-18T05:40:48.449Z,24.10
2023-05-18T05:43:15.138Z,29.38
2023-05-18T05:45:43.609Z,29.00
2023-05-18T05:48:13.522Z,26.13
2023-05-18T05:50:40.674Z,24.50
2023-05-18T05:53:07.338Z,23.48
2023-05-18T05:55:37.817Z,26.08
2023-05-18T05:58:05.412Z,22.10
2023-05-18T06:00:32.064Z,24.25
2023-05-18T06:02:59.078Z,22.42
2023-05-18T06:05:25.993Z,28.13
2023-05-18T06:07:52.823Z,26.98
2023-05-18T06:10:19.544Z,21.20
2023-05-18T06:12:46.164Z,23.77
2023-05-18T06:15:12.869Z,25.00
2023-05-18T06:17:39.859Z,24.50
2023-05-18T06:20:07.715Z,27.80
2023-05-18T06:22:34.359Z,24.88
2023-05-18T06:25:01.053Z,28.35
2023-05-18T06:27:27.960Z,32.80
2023-05-18T06:29:54.669Z,30.77
2023-05-18T06:32:22.503Z,33.20
2023-05-18T06:34:50.814Z,33.80
2023-05-18T06:37:17.862Z,32.05
2023-05-18T06:39:44.580Z,27.90
2023-05-18T06:42:11.390Z,29.90
2023-05-18T06:44:38.238Z,30.75
2023-05-18T06:47:05.273Z,31.55
2023-05-18T06:49:32.188Z,30.20
2023-05-18T06:51:58.810Z,30.73
2023-05-18T06:54:25.538Z,36.55
2023-05-18T06:56:52.464Z,41.72
2023-05-18T06:59:19.142Z,34.53
2023-05-18T07:01:45.892Z,31.88
2023-05-18T07:04:12.676Z,26.92
2023-05-18T07:06:39.515Z,32.03
2023-05-18T07:09:07.279Z,27.40
2023-05-18T07:11:34.008Z,23.65
2023-05-18T07:14:00.690Z,27.40
2023-05-18T07:16:28.294Z,26.30
2023-05-18T07:18:57.213Z,25.30
2023-05-18T07:21:23.885Z,30.98
2023-05-18T07:23:52.637Z,26.90
2023-05-18T07:26:19.787Z,28.05
2023-05-18T07:28:47.821Z,30.35
2023-05-18T07:31:16.488Z,24.35
2023-05-18T07:33:44.566Z,34.95
2023-05-18T07:36:11.407Z,25.73
2023-05-18T07:38:38.127Z,33.22
2023-05-18T07:41:04.796Z,30.83
2023-05-18T07:43:31.746Z,33.65
2023-05-18T07:45:58.386Z,30.42
2023-05-18T07:48:25.000Z,26.30
2023-05-18T07:50:51.753Z,29.90
2023-05-18T07:53:18.675Z,32.13
2023-05-18T07:55:45.737Z,27.90
2023-05-18T07:58:13.452Z,27.35
2023-05-18T08:00:40.162Z,30.33
2023-05-18T08:03:07.065Z,26.92
2023-05-18T08:05:34.076Z,26.38
2023-05-18T08:08:00.967Z,24.42
2023-05-18T08:10:27.590Z,23.55
2023-05-18T08:12:54.215Z,26.35
2023-05-18T08:15:21.000Z,26.88
2023-05-18T08:17:47.756Z,28.38
2023-05-18T08:20:14.479Z,26.55
2023-05-18T08:22:42.523Z,29.63
2023-05-18T08:25:10.336Z,27.90
2023-05-18T08:27:37.182Z,25.80
2023-05-18T08:30:04.155Z,28.23
2023-05-18T08:32:30.872Z,28.77
2023-05-18T08:34:57.515Z,23.98
2023-05-18T08:37:29.486Z,27.38
2023-05-18T08:39:56.736Z,33.58
2023-05-18T08:42:48.559Z,30.35
2023-05-18T08:45:40.372Z,29.27
2023-05-18T08:48:07.149Z,29.33
2023-05-18T08:50:34.237Z,26.02
2023-05-18T08:53:01.925Z,27.75
2023-05-18T08:55:29.308Z,24.90
2023-05-18T08:57:58.058Z,23.02
2023-05-18T09:00:24.971Z,21.73
2023-05-18T09:02:51.967Z,21.65
2023-05-18T09:05:19.064Z,23.58
2023-05-18T09:07:45.869Z,18.55
2023-05-18T09:10:13.748Z,22.92
2023-05-18T09:12:42.793Z,14.90
2023-05-18T09:15:10.724Z,18.25
2023-05-18T09:17:37.580Z,18.17
2023-05-18T09:20:07.667Z,13.77
2023-05-18T09:22:35.902Z,20.13
2023-05-18T09:25:06.170Z,14.68
2023-05-18T09:27:32.853Z,17.05
2023-05-18T09:29:59.544Z,15.02
2023-05-18T09:32:26.312Z,11.85
2023-05-18T09:34:53.694Z,13.85
2023-05-18T09:37:20.748Z,14.80
2023-05-18T09:40:08.250Z,15.93
2023-05-18T09:42:39.040Z,13.50
2023-05-18T09:45:20.281Z,11.68
2023-05-18T09:47:48.246Z,13.10
2023-05-18T09:50:14.897Z,10.82
2023-05-18T09:52:43.349Z,15.40
2023-05-18T09:55:13.366Z,13.85
2023-05-18T09:57:44.069Z,12.77
2023-05-18T10:00:11.888Z,14.57
2023-05-18T10:02:42.343Z,15.48
2023-05-18T10:05:29.782Z,12.68
2023-05-18T10:07:57.209Z,11.20
2023-05-18T10:10:26.229Z,12.82
2023-05-18T10:12:53.602Z,13.02
2023-05-18T10:15:23.674Z,12.02
2023-05-18T10:17:51.360Z,13.50
2023-05-18T10:20:19.417Z,14.10
2023-05-18T10:22:47.631Z,12.88
2023-05-18T10:25:20.055Z,11.75
2023-05-18T10:27:47.997Z,10.80
2023-05-18T10:30:14.833Z,11.75
2023-05-18T10:32:41.612Z,14.00
2023-05-18T10:35:08.799Z,13.02
2023-05-18T10:37:35.653Z,12.23
2023-05-18T10:40:04.104Z,11.00
2023-05-18T10:42:31.351Z,13.38
2023-05-18T10:44:58.124Z,11.90
2023-05-18T10:47:25.996Z,11.93
2023-05-18T10:49:52.864Z,11.07
2023-05-18T10:52:19.665Z,12.02
2023-05-18T10:54:46.657Z,10.60
2023-05-18T10:57:18.004Z,8.98
2023-05-18T10:59:47.446Z,10.93
2023-05-18T11:02:16.774Z,14.52
2023-05-18T11:04:43.855Z,14.23
2023-05-18T11:07:11.587Z,13.35
2023-05-18T11:09:41.436Z,11.63
2023-05-18T11:12:12.219Z,8.93
2023-05-18T11:14:52.187Z,9.50
2023-05-18T11:17:22.506Z,11.20
2023-05-18T11:20:13.518Z,9.95
2023-05-18T11:22:46.189Z,13.20
2023-05-18T11:25:25.660Z,8.57
2023-05-18T11:27:52.831Z,9.60
2023-05-18T11:30:35.723Z,7.63
2023-05-18T11:33:12.662Z,9.40
2023-05-18T11:35:58.800Z,8.65
2023-05-18T11:38:50.377Z,10.43
2023-05-18T11:41:30.954Z,9.55
2023-05-18T11:44:15.513Z,11.15
2023-05-18T11:47:01.240Z,10.00
2023-05-18T11:49:28.937Z,10.95
2023-05-18T11:52:08.933Z,10.70
2023-05-18T11:54:39.598Z,11.07
2023-05-18T11:57:06.610Z,11.23
2023-05-18T11:59:42.738Z,13.48
2023-05-18T12:02:12.799Z,9.27
2023-05-18T12:04:43.860Z,10.43
2023-05-18T12:07:10.522Z,8.98
2023-05-18T12:09:37.354Z,8.55
2023-05-18T12:12:04.213Z,9.70
2023-05-18T12:14:31.441Z,11.38
2023-05-18T12:16:58.838Z,11.30
2023-05-18T12:19:25.737Z,8.23
2023-05-18T12:21:52.678Z,9.30
2023-05-18T12:24:19.289Z,9.13
2023-05-18T12:26:46.842Z,11.75
2023-05-18T12:29:19.913Z,10.35
2023-05-18T12:31:47.407Z,10.77
2023-05-18T12:34:14.704Z,11.93
2023-05-18T12:36:43.891Z,9.95
2023-05-18T12:39:10.642Z,10.35
2023-05-18T12:41:37.311Z,16.40
2023-05-18T12:44:05.124Z,14.25
2023-05-18T12:46:31.886Z,13.20
2023-05-18T12:48:59.662Z,11.85
2023-05-18T12:51:31.561Z,11.48
2023-05-18T12:53:58.288Z,14.63
2023-05-18T12:56:28.534Z,11.95
2023-05-18T12:59:05.961Z,17.02
2023-05-18T13:01:41.959Z,11.18
2023-05-18T13:04:10.955Z,11.38
2023-05-18T13:06:38.473Z,12.00
2023-05-18T13:09:10.445Z,11.60
2023-05-18T13:11:38.342Z,11.75
2023-05-18T13:14:06.610Z,13.13
2023-05-18T13:16:34.498Z,15.45
2023-05-18T13:19:02.800Z,10.98
2023-05-18T13:21:29.878Z,12.10
2023-05-18T13:23:56.683Z,13.98
2023-05-18T13:26:24.020Z,8.65
2023-05-18T13:28:54.957Z,10.02
2023-05-18T13:31:22.427Z,10.25
2023-05-18T13:33:49.801Z,10.23
2023-05-18T13:36:16.854Z,9.95
2023-05-18T13:38:43.654Z,13.05
2023-05-18T13:41:12.126Z,6.03
2023-05-18T13:43:38.785Z,7.50
2023-05-18T13:46:06.181Z,8.95
2023-05-18T13:48:33.040Z,10.43
2023-05-18T13:50:59.852Z,7.93
2023-05-18T13:53:26.752Z,8.52
2023-05-18T13:55:53.389Z,8.10
2023-05-18T13:58:20.044Z,7.70
2023-05-18T14:00:46.805Z,8.65
2023-05-18T14:03:15.333Z,7.93
2023-05-18T14:05:42.172Z,8.15
2023-05-18T14:08:08.899Z,8.25
2023-05-18T14:10:35.783Z,8.55
2023-05-18T14:13:02.405Z,8.68
2023-05-18T14:15:29.039Z,9.18
2023-05-18T14:17:55.942Z,7.50
2023-05-18T14:20:22.590Z,6.55
2023-05-18T14:22:49.295Z,8.38
2023-05-18T14:25:16.380Z,8.85
2023-05-18T14:27:43.029Z,8.45
2023-05-18T14:30:09.949Z,8.63
2023-05-18T14:32:36.838Z,10.10
2023-05-18T14:35:03.927Z,8.98
2023-05-18T14:37:30.626Z,8.10
2023-05-18T14:39:57.268Z,9.77
2023-05-18T14:42:23.905Z,7.28
2023-05-18T14:44:50.710Z,10.10
2023-05-18T14:47:18.059Z,13.40
2023-05-18T14:49:44.761Z,6.68
2023-05-18T14:52:11.476Z,8.23
2023-05-18T14:54:38.237Z,10.52
2023-05-18T14:57:05.132Z,9.57
2023-05-18T14:59:31.848Z,8.02
2023-05-18T15:01:58.700Z,10.55
2023-05-18T15:04:25.866Z,8.75
2023-05-18T15:06:52.860Z,7.68
2023-05-18T15:09:19.764Z,7.97
2023-05-18T15:11:46.649Z,7.53
2023-05-18T15:14:13.332Z,9.18
2023-05-18T15:16:40.147Z,7.85
2023-05-18T15:19:06.999Z,9.75
2023-05-18T15:21:36.795Z,10.75
2023-05-18T15:24:03.524Z,8.95
2023-05-18T15:26:30.211Z,10.82
2023-05-18T15:28:56.980Z,9.38
2023-05-18T15:31:23.758Z,8.60
2023-05-18T15:33:50.793Z,8.70
2023-05-18T15:36:17.543Z,8.23
2023-05-18T15:38:57.754Z,9.60
2023-05-18T15:41:26.266Z,9.43
2023-05-18T15:43:52.997Z,8.35
2023-05-18T15:46:19.694Z,12.43
2023-05-18T15:48:46.367Z,7.82
2023-05-18T15:51:13.069Z,7.95
2023-05-18T15:53:40.278Z,11.60
2023-05-18T15:56:07.070Z,9.88
2023-05-18T15:58:34.349Z,7.65
2023-05-18T16:01:01.041Z,9.77
2023-05-18T16:03:27.836Z,7.97
2023-05-18T16:05:54.586Z,9.18
2023-05-18T16:08:21.502Z,8.85
2023-05-18T16:10:48.159Z,7.05
2023-05-18T16:13:14.891Z,8.20
2023-05-18T16:15:41.946Z,10.57
2023-05-18T16:18:08.724Z,9.73
2023-05-18T16:20:35.599Z,9.23
2023-05-18T16:23:02.298Z,10.18
2023-05-18T16:25:29.497Z,9.15
2023-05-18T16:27:56.461Z,10.63
2023-05-18T16:30:23.336Z,10.98
2023-05-18T16:32:50.057Z,8.52
2023-05-18T16:35:16.820Z,11.23
2023-05-18T16:37:43.603Z,10.48
2023-05-18T16:40:10.771Z,10.93
2023-05-18T16:42:37.480Z,10.48
2023-05-18T16:45:04.505Z,12.45
2023-05-18T16:47:34.016Z,9.90
2023-05-18T16:50:00.826Z,7.15
2023-05-18T16:52:27.681Z,8.98
2023-05-18T16:54:54.361Z,9.02
2023-05-18T16:57:21.256Z,9.30
2023-05-18T16:59:48.213Z,11.60
2023-05-18T17:02:15.751Z,9.02
2023-05-18T17:04:42.989Z,9.90
2023-05-18T17:07:10.001Z,10.27
2023-05-18T17:09:40.181Z,13.02
2023-05-18T17:12:07.775Z,10.63
2023-05-18T17:14:34.451Z,10.65
2023-05-18T17:17:01.164Z,10.93
2023-05-18T17:19:27.813Z,12.23
2023-05-18T17:21:54.859Z,12.38
2023-05-18T17:24:21.500Z,12.85
2023-05-18T17:26:48.340Z,12.20
2023-05-18T17:29:17.199Z,13.98
2023-05-18T17:31:45.924Z,16.45
2023-05-18T17:34:12.665Z,14.25
2023-05-18T17:36:39.408Z,11.48
2023-05-18T17:39:06.173Z,12.48
2023-05-18T17:41:33.663Z,14.00
2023-05-18T17:44:00.828Z,14.15
2023-05-18T17:46:30.842Z,14.90
2023-05-18T17:48:57.526Z,12.65
2023-05-18T17:51:25.191Z,15.40
2023-05-18T17:53:52.027Z,14.30
2023-05-18T17:56:18.773Z,18.83
2023-05-18T17:58:45.576Z,14.10
2023-05-18T18:01:12.609Z,13.90
2023-05-18T18:03:39.492Z,17.20
2023-05-18T18:06:06.862Z,17.48
2023-05-18T18:08:33.921Z,15.00
2023-05-18T18:11:00.808Z,16.02
2023-05-18T18:13:27.610Z,14.18
2023-05-18T18:15:54.689Z,18.75
2023-05-18T18:18:21.578Z,17.88
2023-05-18T18:20:48.442Z,15.52
2023-05-18T18:23:15.836Z,19.30
2023-05-18T18:25:44.172Z,19.15
2023-05-18T18:28:15.088Z,17.98
2023-05-18T18:30:51.383Z,21.92
2023-05-18T18:33:19.891Z,19.48
2023-05-18T18:35:47.073Z,18.77
2023-05-18T18:38:13.729Z,17.98
2023-05-18T18:40:40.506Z,19.23
2023-05-18T18:43:07.323Z,16.02
2023-05-18T18:45:33.993Z,15.90
2023-05-18T18:48:01.521Z,14.43
2023-05-18T18:50:28.990Z,17.48
2023-05-18T18:52:55.806Z,18.70
2023-05-18T18:55:24.346Z,17.35
2023-05-18T18:57:53.588Z,14.70
2023-05-18T19:00:21.514Z,13.13
2023-05-18T19:02:48.308Z,14.07
2023-05-18T19:05:21.549Z,14.55
2023-05-18T19:07:49.522Z,18.38
2023-05-18T19:10:16.405Z,15.52
2023-05-18T19:12:45.831Z,15.55
2023-05-18T19:15:15.212Z,11.80
2023-05-18T19:17:42.097Z,14.30
2023-05-18T19:20:09.590Z,12.77
2023-05-18T19:22:36.270Z,13.00
2023-05-18T19:25:02.936Z,10.95
2023-05-18T19:27:29.652Z,11.63
2023-05-18T19:29:56.756Z,10.48
2023-05-18T19:32:23.432Z,11.80
2023-05-18T19:34:50.149Z,16.48
2023-05-18T19:37:16.896Z,12.82
2023-05-18T19:39:43.754Z,12.98
2023-05-18T19:42:10.411Z,13.32
2023-05-18T19:44:37.183Z,9.75
2023-05-18T19:47:04.248Z,10.38
2023-05-18T19:49:31.419Z,13.40
2023-05-18T19:51:58.160Z,8.68
2023-05-18T19:54:24.942Z,9.13
2023-05-18T19:56:51.758Z,10.02
2023-05-18T19:59:18.546Z,11.23
2023-05-18T20:01:45.592Z,12.15
2023-05-18T20:04:12.752Z,9.80
2023-05-18T20:06:39.447Z,12.45
2023-05-18T20:09:06.547Z,10.70
2023-05-18T20:11:33.458Z,11.32
2023-05-18T20:14:00.200Z,9.35
2023-05-18T20:16:29.075Z,12.07
2023-05-18T20:18:55.912Z,9.88
2023-05-18T20:21:22.731Z,11.63
2023-05-18T20:23:49.424Z,11.27
2023-05-18T20:26:17.262Z,11.23
2023-05-18T20:28:43.911Z,13.35
2023-05-18T20:31:10.886Z,11.57
2023-05-18T20:33:37.595Z,12.18
2023-05-18T20:36:06.133Z,9.38
2023-05-18T20:38:33.418Z,11.45
2023-05-18T20:41:01.721Z,11.27
2023-05-18T20:43:28.519Z,12.27
2023-05-18T20:45:56.139Z,11.93
2023-05-18T20:48:26.850Z,14.18
2023-05-18T20:50:53.670Z,12.52
2023-05-18T20:53:20.593Z,13.52
2023-05-18T20:55:47.754Z,12.80
2023-05-18T20:58:15.127Z,13.27
2023-05-18T21:00:42.878Z,12.85
2023-05-18T21:03:09.708Z,15.23
2023-05-18T21:05:36.456Z,14.80
2023-05-18T21:08:03.449Z,13.50
2023-05-18T21:10:30.596Z,13.23
2023-05-18T21:12:57.994Z,12.65
2023-05-18T21:15:24.968Z,11.70
2023-05-18T21:17:51.965Z,12.57
2023-05-18T21:20:18.984Z,13.57
2023-05-18T21:22:46.057Z,13.52
2023-05-18T21:25:12.704Z,13.90
2023-05-18T21:27:39.908Z,15.60
2023-05-18T21:30:07.204Z,12.05
2023-05-18T21:32:34.122Z,12.68
2023-05-18T21:35:00.980Z,14.80
2023-05-18T21:37:27.625Z,12.40
2023-05-18T21:39:54.310Z,13.88
2023-05-18T21:42:21.566Z,15.52
2023-05-18T21:44:48.285Z,12.52
2023-05-18T21:47:15.134Z,11.50
2023-05-18T21:49:41.914Z,13.95
2023-05-18T21:52:08.672Z,11.13
2023-05-18T21:54:35.576Z,11.25
2023-05-18T21:57:02.445Z,13.57
2023-05-18T21:59:29.150Z,12.45
2023-05-18T22:01:56.244Z,13.32
2023-05-18T22:04:23.119Z,13.70
2023-05-18T22:06:49.874Z,14.27
2023-05-18T22:09:16.913Z,12.30
2023-05-18T22:11:43.599Z,13.57
2023-05-18T22:14:10.332Z,12.00
2023-05-18T22:16:37.297Z,12.45
2023-05-18T22:19:04.088Z,13.05
2023-05-18T22:21:31.373Z,14.13
2023-05-18T22:23:58.166Z,14.15
2023-05-18T22:26:25.099Z,12.85
2023-05-18T22:28:51.811Z,12.30
2023-05-18T22:31:18.535Z,11.95
2023-05-18T22:33:45.215Z,12.15
2023-05-18T22:36:11.910Z,11.77
2023-05-18T22:38:41.625Z,13.70
2023-05-18T22:41:08.293Z,11.95
2023-05-18T22:43:34.928Z,13.05
2023-05-18T22:46:02.036Z,12.07
2023-05-18T22:48:28.973Z,12.93
2023-05-18T22:50:55.658Z,13.07
2023-05-18T22:53:22.345Z,13.75
2023-05-18T22:55:49.435Z,13.27
2023-05-18T22:58:16.105Z,13.02
2023-05-18T23:00:42.772Z,14.15
2023-05-18T23:03:09.542Z,13.75
2023-05-18T23:05:37.011Z,15.25
2023-05-18T23:08:05.236Z,14.52
2023-05-18T23:10:32.107Z,14.00
2023-05-18T23:12:59.820Z,14.70
2023-05-18T23:15:26.898Z,13.75
2023-05-18T23:17:56.385Z,13.63
2023-05-18T23:20:23.194Z,18.00
2023-05-18T23:22:49.895Z,13.02
2023-05-18T23:25:16.788Z,15.07
2023-05-18T23:27:44.605Z,15.80
2023-05-18T23:30:11.667Z,15.75
2023-05-18T23:32:38.713Z,15.23
2023-05-18T23:35:06.640Z,18.17
2023-05-18T23:37:33.463Z,14.30
2023-05-18T23:40:01.458Z,17.40
2023-05-18T23:42:28.321Z,15.68
2023-05-18T23:44:55.461Z,15.10
2023-05-18T23:47:22.495Z,15.73
2023-05-18T23:49:49.621Z,15.68
2023-05-18T23:52:16.674Z,16.98
2023-05-18T23:54:45.659Z,17.60
2023-05-18T23:57:12.527Z,20.08
2023-05-18T23:59:39.167Z,17.42
